createdAt,value
2022-11-07T00:00:49.875Z,11.48
2022-11-07T00:03:18.571Z,11.48
2022-11-07T00:05:46.607Z,11.38
2022-11-07T00:08:14.280Z,11.64
2022-11-07T00:10:42.133Z,11.44
2022-11-07T00:13:10.269Z,11.40
2022-11-07T00:15:39.380Z,11.40
2022-11-07T00:18:07.087Z,11.48
2022-11-07T00:20:34.747Z,11.73
2022-11-07T00:23:02.635Z,11.72
2022-11-07T00:25:31.584Z,11.61
2022-11-07T00:27:59.340Z,11.70
2022-11-07T00:30:27.007Z,11.59
2022-11-07T00:33:00.059Z,11.41
2022-11-07T00:35:28.319Z,11.56
2022-11-07T00:37:56.370Z,11.46
2022-11-07T00:40:24.214Z,11.53
2022-11-07T00:42:51.930Z,11.68
2022-11-07T00:45:19.704Z,11.64
2022-11-07T00:47:47.377Z,11.67
2022-11-07T00:50:16.541Z,11.74
2022-11-07T00:52:44.360Z,11.74
2022-11-07T00:55:12.067Z,11.78
2022-11-07T00:57:39.807Z,11.60
2022-11-07T01:00:08.563Z,11.67
2022-11-07T01:02:36.519Z,11.65
2022-11-07T01:05:12.918Z,11.76
2022-11-07T01:07:41.934Z,11.83
2022-11-07T01:10:09.691Z,11.71
2022-11-07T01:12:38.042Z,11.88
2022-11-07T01:15:06.156Z,11.71
2022-11-07T01:17:33.850Z,11.96
2022-11-07T01:20:01.520Z,11.75
2022-11-07T01:22:29.524Z,11.86
2022-11-07T01:24:58.566Z,11.99
2022-11-07T01:27:26.459Z,12.05
2022-11-07T01:29:54.224Z,11.78
2022-11-07T01:32:22.083Z,11.92
2022-11-07T01:34:49.938Z,11.85
2022-11-07T01:37:17.727Z,11.91
2022-11-07T01:39:45.491Z,11.75
2022-11-07T01:42:14.551Z,11.66
2022-11-07T01:44:53.414Z,11.75
2022-11-07T01:47:22.352Z,11.71
2022-11-07T01:49:50.169Z,11.63
2022-11-07T01:52:20.145Z,11.67
2022-11-07T01:54:49.854Z,11.66
2022-11-07T01:57:21.631Z,11.71
2022-11-07T01:59:50.223Z,11.50
2022-11-07T02:02:18.220Z,11.56
2022-11-07T02:04:46.822Z,11.76
2022-11-07T02:07:17.694Z,11.94
2022-11-07T02:09:45.724Z,11.86
2022-11-07T02:12:13.726Z,11.99
2022-11-07T02:14:44.195Z,11.79
2022-11-07T02:17:12.410Z,11.96
2022-11-07T02:19:40.531Z,12.05
2022-11-07T02:22:14.873Z,12.06
2022-11-07T02:24:44.127Z,11.95
2022-11-07T02:27:14.436Z,12.02
2022-11-07T02:29:45.099Z,11.92
2022-11-07T02:32:13.358Z,11.95
2022-11-07T02:34:41.128Z,11.87
2022-11-07T02:37:14.242Z,11.94
2022-11-07T02:39:42.061Z,12.01
2022-11-07T02:42:11.519Z,11.86
2022-11-07T02:44:39.206Z,11.99
2022-11-07T02:47:06.867Z,11.93
2022-11-07T02:49:34.730Z,11.97
2022-11-07T02:52:02.593Z,11.94
2022-11-07T02:54:30.599Z,12.12
2022-11-07T02:56:58.271Z,11.98
2022-11-07T02:59:27.423Z,11.96
2022-11-07T03:01:55.326Z,12.05
2022-11-07T03:04:24.210Z,12.08
2022-11-07T03:06:52.700Z,12.02
2022-11-07T03:09:20.623Z,12.07
2022-11-07T03:11:48.570Z,12.29
2022-11-07T03:14:16.462Z,12.16
2022-11-07T03:16:45.538Z,12.12
2022-11-07T03:19:13.223Z,11.97
2022-11-07T03:21:40.914Z,12.02
2022-11-07T03:24:08.656Z,12.05
2022-11-07T03:26:36.305Z,12.13
2022-11-07T03:29:04.063Z,12.19
2022-11-07T03:31:32.096Z,12.16
2022-11-07T03:34:01.214Z,12.21
2022-11-07T03:36:28.910Z,12.30
2022-11-07T03:38:56.978Z,12.30
2022-11-07T03:41:24.756Z,12.05
2022-11-07T03:43:52.655Z,12.23
2022-11-07T03:46:20.431Z,12.38
2022-11-07T03:48:48.146Z,12.33
2022-11-07T03:51:17.258Z,12.16
2022-11-07T03:53:44.912Z,12.21
2022-11-07T03:56:13.791Z,12.14
2022-11-07T03:58:41.919Z,12.17
2022-11-07T04:01:10.533Z,12.09
2022-11-07T04:03:38.226Z,12.09
2022-11-07T04:06:06.109Z,11.94
2022-11-07T04:08:35.252Z,11.99
2022-11-07T04:11:02.940Z,11.95
2022-11-07T04:13:48.239Z,11.98
2022-11-07T04:16:33.230Z,11.91
2022-11-07T04:19:01.524Z,11.98
2022-11-07T04:21:29.475Z,12.06
2022-11-07T04:23:58.631Z,11.98
2022-11-07T04:26:43.726Z,12.04
2022-11-07T04:29:11.467Z,11.89
2022-11-07T04:31:39.151Z,11.77
2022-11-07T04:34:06.835Z,11.75
2022-11-07T04:36:36.217Z,11.76
2022-11-07T04:39:05.290Z,11.65
2022-11-07T04:41:32.948Z,11.83
2022-11-07T04:44:00.620Z,11.83
2022-11-07T04:46:28.405Z,11.85
2022-11-07T04:48:56.313Z,11.94
2022-11-07T04:51:24.466Z,11.80
2022-11-07T04:53:52.096Z,11.96
2022-11-07T04:56:21.215Z,11.88
2022-11-07T04:58:48.959Z,12.01
2022-11-07T05:01:17.010Z,11.87
2022-11-07T05:03:44.946Z,11.83
2022-11-07T05:06:15.165Z,11.86
2022-11-07T05:08:42.824Z,11.81
2022-11-07T05:11:10.564Z,11.90
2022-11-07T05:13:39.706Z,11.81
2022-11-07T05:16:08.062Z,11.90
2022-11-07T05:18:35.720Z,12.10
2022-11-07T05:21:03.531Z,12.11
2022-11-07T05:23:31.219Z,12.27
2022-11-07T05:25:58.850Z,12.23
2022-11-07T05:28:35.360Z,12.13
2022-11-07T05:31:07.423Z,12.05
2022-11-07T05:33:35.661Z,12.15
2022-11-07T05:36:10.294Z,12.16
2022-11-07T05:38:37.997Z,12.13
2022-11-07T05:41:05.829Z,12.03
2022-11-07T05:43:33.572Z,11.95
2022-11-07T05:46:01.731Z,11.92
2022-11-07T05:48:31.534Z,12.14
2022-11-07T05:50:59.417Z,11.92
2022-11-07T05:53:27.808Z,11.93
2022-11-07T05:55:56.083Z,12.05
2022-11-07T05:58:23.949Z,11.94
2022-11-07T06:00:51.730Z,12.03
2022-11-07T06:03:20.865Z,12.07
2022-11-07T06:05:50.369Z,11.96
2022-11-07T06:08:29.354Z,11.80
2022-11-07T06:14:00.549Z,12.02
2022-11-07T06:16:53.555Z,12.08
2022-11-07T06:19:44.094Z,11.94
2022-11-07T06:22:35.114Z,11.84
2022-11-07T06:25:10.693Z,11.89
2022-11-07T06:27:46.732Z,12.02
2022-11-07T06:30:27.744Z,12.00
2022-11-07T06:33:06.970Z,11.90
2022-11-07T06:35:42.563Z,11.81
2022-11-07T06:38:12.746Z,11.86
2022-11-07T06:40:42.566Z,11.82
2022-11-07T06:43:11.568Z,11.90
2022-11-07T06:45:39.573Z,11.87
2022-11-07T06:48:07.590Z,11.71
2022-11-07T06:50:35.852Z,11.81
2022-11-07T06:53:04.299Z,11.90
2022-11-07T06:55:34.504Z,11.77
2022-11-07T06:58:02.493Z,11.86
2022-11-07T07:00:34.252Z,11.79
2022-11-07T07:03:05.744Z,11.89
2022-11-07T07:05:40.812Z,11.94
2022-11-07T07:08:32.510Z,11.79
2022-11-07T07:11:15.480Z,11.98
2022-11-07T07:14:11.220Z,11.98
2022-11-07T07:16:52.260Z,12.03
2022-11-07T07:19:31.648Z,12.11
2022-11-07T07:22:14.661Z,11.94
2022-11-07T07:24:46.795Z,12.04
2022-11-07T07:27:16.102Z,11.92
2022-11-07T07:29:43.782Z,12.03
2022-11-07T07:32:11.423Z,12.06
2022-11-07T07:34:39.176Z,11.98
2022-11-07T07:37:06.876Z,12.03
2022-11-07T07:39:34.817Z,11.94
2022-11-07T07:42:02.745Z,12.01
2022-11-07T07:44:34.712Z,11.86
2022-11-07T07:47:07.044Z,12.02
2022-11-07T07:49:48.555Z,12.07
2022-11-07T07:52:25.244Z,12.06
2022-11-07T07:55:03.275Z,12.17
2022-11-07T07:57:54.739Z,12.06
2022-11-07T08:00:53.137Z,12.17
2022-11-07T08:03:59.575Z,12.20
2022-11-07T08:06:38.112Z,12.21
2022-11-07T08:09:07.684Z,12.24
2022-11-07T08:11:50.279Z,12.20
2022-11-07T08:14:24.837Z,12.30
2022-11-07T08:16:54.105Z,12.21
2022-11-07T08:19:21.864Z,12.15
2022-11-07T08:21:49.588Z,12.07
2022-11-07T08:24:17.268Z,12.18
2022-11-07T08:26:44.998Z,12.23
2022-11-07T08:29:12.791Z,12.16
2022-11-07T08:31:40.511Z,12.12
2022-11-07T08:34:09.731Z,12.28
2022-11-07T08:36:37.501Z,12.11
2022-11-07T08:39:11.434Z,12.27
2022-11-07T08:41:52.195Z,12.28
2022-11-07T08:44:29.584Z,12.25
2022-11-07T08:47:08.780Z,12.23
2022-11-07T08:50:04.182Z,12.20
2022-11-07T08:53:02.246Z,12.40
2022-11-07T08:56:02.345Z,12.57
2022-11-07T08:58:37.900Z,12.44
2022-11-07T09:01:10.190Z,12.35
2022-11-07T09:03:53.273Z,12.36
2022-11-07T09:06:27.495Z,12.51
2022-11-07T09:08:55.187Z,12.40
2022-11-07T09:11:23.420Z,12.43
2022-11-07T09:13:51.254Z,12.37
2022-11-07T09:16:19.211Z,12.22
2022-11-07T09:18:47.491Z,12.39
2022-11-07T09:21:20.685Z,12.45
2022-11-07T09:23:51.657Z,12.46
2022-11-07T09:26:19.642Z,12.54
2022-11-07T09:29:02.799Z,12.52
2022-11-07T09:31:40.534Z,12.44
2022-11-07T09:34:17.407Z,12.23
2022-11-07T09:37:06.247Z,12.37
2022-11-07T09:39:52.990Z,12.58
2022-11-07T09:42:50.626Z,12.47
2022-11-07T09:45:29.433Z,12.67
2022-11-07T09:48:10.766Z,12.68
2022-11-07T09:50:54.416Z,12.49
2022-11-07T09:53:36.526Z,12.56
2022-11-07T09:56:16.142Z,12.50
2022-11-07T09:58:45.799Z,12.45
2022-11-07T10:01:15.335Z,12.69
2022-11-07T10:04:17.698Z,12.73
2022-11-07T10:06:32.421Z,12.68
2022-11-07T10:09:06.205Z,12.71
2022-11-07T10:11:38.624Z,12.59
2022-11-07T10:14:15.243Z,12.76
2022-11-07T10:17:03.588Z,12.86
2022-11-07T10:19:46.361Z,12.80
2022-11-07T10:22:46.724Z,12.74
2022-11-07T10:25:40.168Z,12.88
2022-11-07T10:31:53.414Z,12.85
2022-11-07T10:34:33.481Z,12.80
2022-11-07T10:37:07.339Z,12.94
2022-11-07T10:39:43.601Z,12.92
2022-11-07T10:42:22.670Z,12.94
2022-11-07T10:44:58.596Z,12.82
2022-11-07T10:47:29.983Z,13.07
2022-11-07T10:49:59.850Z,13.07
2022-11-07T10:52:28.361Z,13.27
2022-11-07T10:55:06.456Z,13.16
2022-11-07T10:57:35.518Z,13.24
2022-11-07T11:00:03.936Z,13.30
2022-11-07T11:02:33.209Z,13.10
2022-11-07T11:05:03.605Z,13.27
2022-11-07T11:07:44.877Z,13.28
2022-11-07T11:10:32.387Z,13.29
2022-11-07T11:13:05.736Z,13.42
2022-11-07T11:15:49.872Z,13.49
2022-11-07T11:18:29.646Z,13.50
2022-11-07T11:21:17.723Z,13.37
2022-11-07T11:23:58.438Z,13.48
2022-11-07T11:26:37.341Z,13.57
2022-11-07T11:29:17.689Z,13.51
2022-11-07T11:31:54.278Z,13.56
2022-11-07T11:34:41.779Z,13.53
2022-11-07T11:37:14.228Z,13.48
2022-11-07T11:39:45.098Z,13.44
2022-11-07T11:42:18.181Z,13.57
2022-11-07T11:44:46.893Z,13.60
2022-11-07T11:47:18.709Z,13.60
2022-11-07T11:49:48.791Z,13.65
2022-11-07T11:52:18.957Z,13.77
2022-11-07T11:54:47.051Z,13.70
2022-11-07T11:57:16.589Z,13.65
2022-11-07T12:00:02.107Z,13.81
2022-11-07T12:02:58.970Z,13.83
2022-11-07T12:05:30.683Z,13.80
2022-11-07T12:08:08.070Z,13.81
2022-11-07T12:10:53.741Z,13.97
2022-11-07T12:13:31.729Z,13.91
2022-11-07T12:16:26.150Z,13.97
2022-11-07T12:19:03.777Z,13.97
2022-11-07T12:21:34.950Z,14.09
2022-11-07T12:24:27.879Z,14.09
2022-11-07T12:27:02.638Z,14.26
2022-11-07T12:29:36.602Z,14.12
2022-11-07T12:32:10.552Z,14.27
2022-11-07T12:34:46.099Z,14.12
2022-11-07T12:37:24.037Z,14.40
2022-11-07T12:40:02.261Z,14.50
2022-11-07T12:42:38.973Z,14.36
2022-11-07T12:45:16.119Z,14.52
2022-11-07T12:48:00.433Z,14.70
2022-11-07T12:50:33.278Z,14.66
2022-11-07T12:53:04.841Z,14.58
2022-11-07T12:55:34.570Z,14.56
2022-11-07T12:58:03.616Z,14.72
2022-11-07T13:00:31.792Z,14.68
2022-11-07T13:03:12.050Z,14.60
2022-11-07T13:05:46.396Z,14.55
2022-11-07T13:08:17.027Z,14.43
2022-11-07T13:10:50.217Z,14.41
2022-11-07T13:13:22.198Z,14.67
2022-11-07T13:16:14.016Z,14.54
2022-11-07T13:18:37.960Z,14.57
2022-11-07T13:21:06.989Z,14.68
2022-11-07T13:23:34.812Z,14.53
2022-11-07T13:26:25.955Z,14.65
2022-11-07T13:28:58.649Z,14.29
2022-11-07T13:31:33.888Z,14.45
2022-11-07T13:34:12.087Z,14.60
2022-11-07T13:36:40.412Z,14.37
2022-11-07T13:39:08.689Z,14.43
2022-11-07T13:41:37.063Z,14.56
2022-11-07T13:44:08.015Z,14.57
2022-11-07T13:46:36.828Z,14.55
2022-11-07T13:49:07.723Z,14.45
2022-11-07T13:51:38.410Z,14.51
2022-11-07T13:54:12.552Z,14.49
2022-11-07T13:56:43.021Z,14.36
2022-11-07T13:59:15.254Z,14.38
2022-11-07T14:01:44.882Z,14.46
2022-11-07T14:04:13.945Z,14.40
2022-11-07T14:06:41.931Z,14.45
2022-11-07T14:09:09.721Z,14.46
2022-11-07T14:11:38.028Z,14.51
2022-11-07T14:14:08.204Z,14.44
2022-11-07T14:16:38.203Z,14.38
2022-11-07T14:19:06.995Z,14.45
2022-11-07T14:21:36.369Z,14.50
2022-11-07T14:24:04.617Z,14.46
2022-11-07T14:26:33.281Z,14.33
2022-11-07T14:29:01.842Z,14.39
2022-11-07T14:31:30.741Z,14.48
2022-11-07T14:34:00.722Z,14.50
2022-11-07T14:36:29.040Z,14.59
2022-11-07T14:39:01.483Z,14.37
2022-11-07T14:41:29.788Z,14.30
2022-11-07T14:44:00.858Z,14.43
2022-11-07T14:46:28.940Z,14.51
2022-11-07T14:48:56.955Z,14.55
2022-11-07T14:51:26.993Z,14.41
2022-11-07T14:53:56.558Z,14.48
2022-11-07T14:56:25.839Z,14.47
2022-11-07T14:58:54.456Z,14.47
2022-11-07T15:01:25.874Z,14.44
2022-11-07T15:03:55.582Z,14.53
2022-11-07T15:06:24.928Z,14.62
2022-11-07T15:08:58.631Z,14.61
2022-11-07T15:11:29.205Z,14.42
2022-11-07T15:13:57.873Z,14.47
2022-11-07T15:16:29.086Z,14.35
2022-11-07T15:18:58.863Z,14.33
2022-11-07T15:21:28.744Z,14.51
2022-11-07T15:23:57.934Z,14.54
2022-11-07T15:26:26.285Z,14.41
2022-11-07T15:28:54.855Z,14.41
2022-11-07T15:31:24.924Z,14.36
2022-11-07T15:33:53.241Z,14.44
2022-11-07T15:36:21.612Z,14.31
2022-11-07T15:38:49.620Z,14.30
2022-11-07T15:41:19.019Z,14.34
2022-11-07T15:43:46.727Z,14.36
2022-11-07T15:46:22.095Z,14.38
2022-11-07T15:48:49.992Z,14.30
2022-11-07T15:51:17.730Z,14.32
2022-11-07T15:53:45.474Z,14.28
2022-11-07T15:56:15.454Z,14.32
2022-11-07T15:58:44.612Z,14.32
2022-11-07T16:01:12.949Z,14.18
2022-11-07T16:03:41.775Z,14.22
2022-11-07T16:06:16.096Z,14.11
2022-11-07T16:08:44.170Z,14.25
2022-11-07T16:11:12.562Z,14.17
2022-11-07T16:13:40.307Z,14.12
2022-11-07T16:16:16.084Z,14.10
2022-11-07T16:18:45.176Z,14.08
2022-11-07T16:21:12.949Z,14.05
2022-11-07T16:23:42.243Z,13.85
2022-11-07T16:26:12.483Z,13.76
2022-11-07T16:28:40.220Z,13.83
2022-11-07T16:31:09.327Z,13.79
2022-11-07T16:33:37.265Z,14.01
2022-11-07T16:36:12.976Z,14.02
2022-11-07T16:38:40.714Z,14.14
2022-11-07T16:41:09.503Z,14.02
2022-11-07T16:43:38.133Z,13.83
2022-11-07T16:46:17.523Z,13.86
2022-11-07T16:48:45.871Z,13.92
2022-11-07T16:51:14.956Z,14.00
2022-11-07T16:53:43.455Z,14.13
2022-11-07T16:56:18.991Z,14.12
2022-11-07T16:58:46.865Z,13.85
2022-11-07T17:01:16.210Z,14.00
2022-11-07T17:03:44.220Z,14.08
2022-11-07T17:06:17.386Z,13.88
2022-11-07T17:08:45.428Z,13.94
2022-11-07T17:11:15.038Z,13.99
2022-11-07T17:13:42.798Z,14.04
2022-11-07T17:16:18.329Z,14.00
2022-11-07T17:18:49.276Z,14.00
2022-11-07T17:21:21.875Z,13.80
2022-11-07T17:23:49.752Z,14.03
2022-11-07T17:26:22.640Z,13.99
2022-11-07T17:28:51.083Z,13.92
2022-11-07T17:31:19.232Z,13.90
2022-11-07T17:33:48.352Z,13.97
2022-11-07T17:36:22.870Z,13.85
2022-11-07T17:38:51.263Z,13.92
2022-11-07T17:41:19.187Z,13.90
2022-11-07T17:43:47.129Z,13.75
2022-11-07T17:46:17.054Z,13.75
2022-11-07T17:48:47.426Z,13.78
2022-11-07T17:51:16.822Z,13.74
2022-11-07T17:53:44.748Z,13.81
2022-11-07T17:56:16.486Z,13.85
2022-11-07T17:58:44.703Z,13.91
2022-11-07T18:01:16.237Z,13.82
2022-11-07T18:03:44.743Z,14.01
2022-11-07T18:06:12.530Z,14.00
2022-11-07T18:08:52.333Z,14.01
2022-11-07T18:11:21.446Z,13.91
2022-11-07T18:13:51.223Z,13.96
2022-11-07T18:16:21.176Z,13.97
2022-11-07T18:18:49.130Z,13.91
2022-11-07T18:21:17.151Z,13.91
2022-11-07T18:23:46.664Z,13.93
2022-11-07T18:26:16.940Z,13.82
2022-11-07T18:28:45.131Z,13.97
2022-11-07T18:31:14.052Z,13.81
2022-11-07T18:33:42.336Z,13.71
2022-11-07T18:36:11.521Z,13.50
2022-11-07T18:38:39.743Z,13.66
2022-11-07T18:41:09.861Z,13.69
2022-11-07T18:43:38.022Z,13.68
2022-11-07T18:46:06.035Z,13.62
2022-11-07T18:48:33.965Z,13.65
2022-11-07T18:51:02.176Z,13.74
2022-11-07T18:53:30.918Z,13.76
2022-11-07T18:55:59.139Z,13.72
2022-11-07T18:58:29.906Z,13.80
2022-11-07T19:01:02.848Z,13.93
2022-11-07T19:04:48.052Z,13.89
2022-11-07T19:07:15.743Z,13.61
2022-11-07T19:10:27.546Z,13.67
2022-11-07T19:12:55.488Z,13.87
2022-11-07T19:15:26.959Z,13.90
2022-11-07T19:17:55.084Z,14.01
2022-11-07T19:20:23.042Z,13.91
2022-11-07T19:22:50.925Z,13.90
2022-11-07T19:25:19.843Z,13.77
2022-11-07T19:27:51.573Z,13.84
2022-11-07T19:30:19.771Z,13.78
2022-11-07T19:32:48.287Z,13.80
2022-11-07T19:35:17.403Z,13.79
2022-11-07T19:37:45.332Z,13.98
2022-11-07T19:40:13.865Z,14.03
2022-11-07T19:42:41.867Z,13.90
2022-11-07T19:45:12.427Z,14.02
2022-11-07T19:47:40.381Z,14.08
2022-11-07T19:50:08.989Z,14.03
2022-11-07T19:52:36.953Z,13.92
2022-11-07T19:55:06.330Z,13.90
2022-11-07T19:57:34.557Z,13.96
2022-11-07T20:00:03.044Z,14.00
2022-11-07T20:02:38.769Z,14.01
2022-11-07T20:05:10.319Z,13.97
2022-11-07T20:07:38.183Z,14.14
2022-11-07T20:10:08.698Z,14.15
2022-11-07T20:12:36.704Z,14.10
2022-11-07T20:15:05.410Z,14.10
2022-11-07T20:17:34.855Z,13.98
2022-11-07T20:20:06.279Z,14.00
2022-11-07T20:22:40.468Z,14.07
2022-11-07T20:25:11.023Z,14.19
2022-11-07T20:27:38.976Z,14.27
2022-11-07T20:30:08.587Z,14.31
2022-11-07T20:32:39.473Z,14.33
2022-11-07T20:35:08.897Z,14.30
2022-11-07T20:37:37.517Z,14.20
2022-11-07T20:40:06.693Z,14.26
2022-11-07T20:42:35.046Z,14.34
2022-11-07T20:45:04.243Z,14.36
2022-11-07T20:47:33.390Z,14.50
2022-11-07T20:50:02.953Z,14.47
2022-11-07T20:52:31.001Z,14.36
2022-11-07T20:54:58.940Z,14.47
2022-11-07T20:57:27.473Z,14.48
2022-11-07T20:59:55.498Z,14.32
2022-11-07T21:02:23.772Z,14.37
2022-11-07T21:05:16.327Z,14.47
2022-11-07T21:07:41.377Z,14.43
2022-11-07T21:10:10.559Z,14.39
2022-11-07T21:12:38.560Z,14.45
2022-11-07T21:15:07.989Z,14.58
2022-11-07T21:17:36.111Z,14.60
2022-11-07T21:20:04.412Z,14.60
2022-11-07T21:22:32.483Z,14.61
2022-11-07T21:25:01.975Z,14.59
2022-11-07T21:27:30.168Z,14.59
2022-11-07T21:29:58.421Z,14.58
2022-11-07T21:32:26.458Z,14.56
2022-11-07T21:34:54.438Z,14.48
2022-11-07T21:37:22.342Z,14.57
2022-11-07T21:39:50.274Z,14.52
2022-11-07T21:42:19.511Z,14.44
2022-11-07T21:44:47.728Z,14.29
2022-11-07T21:47:15.595Z,14.35
2022-11-07T21:49:43.578Z,14.32
2022-11-07T21:52:12.353Z,14.35
2022-11-07T21:54:40.545Z,14.42
2022-11-07T21:57:08.590Z,14.46
2022-11-07T21:59:38.177Z,14.44
2022-11-07T22:02:06.460Z,14.31
2022-11-07T22:04:34.464Z,14.40
2022-11-07T22:07:02.384Z,14.31
2022-11-07T22:09:30.458Z,14.48
2022-11-07T22:11:58.463Z,14.45
2022-11-07T22:14:26.367Z,14.54
2022-11-07T22:16:56.756Z,14.43
2022-11-07T22:19:24.826Z,14.25
2022-11-07T22:21:52.860Z,14.32
2022-11-07T22:24:21.113Z,14.30
2022-11-07T22:26:49.076Z,14.29
2022-11-07T22:29:16.970Z,14.29
2022-11-07T22:31:44.960Z,14.22
2022-11-07T22:34:14.271Z,14.34
2022-11-07T22:36:42.396Z,14.33
2022-11-07T22:39:10.341Z,14.36
2022-11-07T22:41:38.698Z,14.42
2022-11-07T22:44:06.613Z,14.44
2022-11-07T22:46:34.651Z,14.53
2022-11-07T22:49:02.770Z,14.54
2022-11-07T22:51:33.692Z,14.43
2022-11-07T22:54:03.423Z,14.27
2022-11-07T22:56:32.100Z,14.27
2022-11-07T22:59:00.219Z,14.40
2022-11-07T23:01:30.780Z,14.32
2022-11-07T23:03:59.844Z,14.34
2022-11-07T23:06:29.357Z,14.29
2022-11-07T23:09:00.136Z,14.15
2022-11-07T23:11:48.021Z,14.02
2022-11-07T23:14:19.717Z,14.21
2022-11-07T23:16:50.659Z,14.26
2022-11-07T23:19:21.095Z,14.25
2022-11-07T23:21:50.817Z,14.30
2022-11-07T23:24:20.633Z,14.09
2022-11-07T23:26:49.511Z,14.10
2022-11-07T23:29:19.722Z,14.13
2022-11-07T23:31:49.896Z,14.14
2022-11-07T23:34:19.671Z,14.10
2022-11-07T23:36:47.608Z,14.19
2022-11-07T23:39:17.301Z,14.25
2022-11-07T23:41:47.465Z,14.20
2022-11-07T23:44:16.493Z,14.26
2022-11-07T23:47:02.966Z,14.24
2022-11-07T23:49:48.788Z,14.18
2022-11-07T23:52:17.430Z,14.26
2022-11-07T23:55:02.716Z,14.25
2022-11-07T23:57:35.080Z,14.22
